createdAt,value
2022-11-30T00:01:24.685Z,4.60
2022-11-30T00:03:56.577Z,4.60
2022-11-30T00:06:24.889Z,4.60
2022-11-30T00:08:57.625Z,4.60
2022-11-30T00:11:28.524Z,4.60
2022-11-30T00:13:55.596Z,4.60
2022-11-30T00:16:22.694Z,4.50
2022-11-30T00:18:50.024Z,4.50
2022-11-30T00:21:20.693Z,4.50
2022-11-30T00:23:48.716Z,4.50
2022-11-30T00:26:19.093Z,4.40
2022-11-30T00:28:46.654Z,4.40
2022-11-30T00:31:16.765Z,4.40
2022-11-30T00:33:44.381Z,4.40
2022-11-30T00:36:19.001Z,4.30
2022-11-30T00:38:46.660Z,4.40
2022-11-30T00:41:14.871Z,4.40
2022-11-30T00:43:41.805Z,4.40
2022-11-30T00:46:09.404Z,4.40
2022-11-30T00:48:40.332Z,4.40
2022-11-30T00:51:10.014Z,4.40
2022-11-30T00:53:37.379Z,4.40
2022-11-30T00:56:04.847Z,4.40
2022-11-30T00:58:31.718Z,4.40
2022-11-30T01:00:58.952Z,4.40
2022-11-30T01:03:25.983Z,4.40
2022-11-30T01:05:52.869Z,4.40
2022-11-30T01:08:19.890Z,4.40
2022-11-30T01:10:49.441Z,4.40
2022-11-30T01:13:16.388Z,4.40
2022-11-30T01:15:44.326Z,4.40
2022-11-30T01:18:11.741Z,4.40
2022-11-30T01:20:44.513Z,4.40
2022-11-30T01:23:11.692Z,4.40
2022-11-30T01:25:39.883Z,4.40
2022-11-30T01:28:09.138Z,4.40
2022-11-30T01:30:36.121Z,4.40
2022-11-30T01:33:06.740Z,4.40
2022-11-30T01:35:33.526Z,4.40
2022-11-30T01:38:00.357Z,4.40
2022-11-30T01:40:27.389Z,4.40
2022-11-30T01:42:54.168Z,4.40
2022-11-30T01:45:21.029Z,4.40
2022-11-30T01:47:53.479Z,4.60
2022-11-30T01:50:35.026Z,4.70
2022-11-30T01:53:03.581Z,4.40
2022-11-30T01:55:39.577Z,4.40
2022-11-30T01:58:16.681Z,4.40
2022-11-30T02:00:47.798Z,4.30
2022-11-30T02:03:39.650Z,4.30
2022-11-30T02:06:08.228Z,4.30
2022-11-30T02:08:35.161Z,4.30
2022-11-30T02:11:07.826Z,4.30
2022-11-30T02:14:12.258Z,4.30
2022-11-30T02:16:59.760Z,4.30
2022-11-30T02:20:00.691Z,4.30
2022-11-30T02:23:20.904Z,4.30
2022-11-30T02:26:05.149Z,4.20
2022-11-30T02:29:14.116Z,4.20
2022-11-30T02:32:17.583Z,4.20
2022-11-30T02:34:47.747Z,4.20
2022-11-30T02:37:16.854Z,4.30
2022-11-30T02:39:44.263Z,4.20
2022-11-30T02:42:15.803Z,4.20
2022-11-30T02:44:52.213Z,4.20
2022-11-30T02:47:36.471Z,4.20
2022-11-30T02:50:17.312Z,4.20
2022-11-30T02:52:45.738Z,4.20
2022-11-30T02:55:18.366Z,4.20
2022-11-30T02:57:45.450Z,4.30
2022-11-30T03:00:14.681Z,4.20
2022-11-30T03:02:42.506Z,4.20
2022-11-30T03:05:10.174Z,4.40
2022-11-30T03:07:37.546Z,4.20
2022-11-30T03:10:06.630Z,4.20
2022-11-30T03:12:33.552Z,4.20
2022-11-30T03:15:00.422Z,4.20
2022-11-30T03:17:27.774Z,4.20
2022-11-30T03:19:54.695Z,4.20
2022-11-30T03:22:21.609Z,4.20
2022-11-30T03:24:56.141Z,4.20
2022-11-30T03:27:23.047Z,4.20
2022-11-30T03:29:49.890Z,4.70
2022-11-30T03:32:16.781Z,4.20
2022-11-30T03:34:43.570Z,4.10
2022-11-30T03:37:10.316Z,4.10
2022-11-30T03:39:37.172Z,4.10
2022-11-30T03:42:04.308Z,4.20
2022-11-30T03:44:31.069Z,4.10
2022-11-30T03:46:58.133Z,4.20
2022-11-30T03:49:29.152Z,4.20
2022-11-30T03:51:59.916Z,4.10
2022-11-30T03:54:34.709Z,4.20
2022-11-30T03:57:01.587Z,4.20
2022-11-30T03:59:28.338Z,4.10
2022-11-30T04:01:55.218Z,4.10
2022-11-30T04:04:21.955Z,4.10
2022-11-30T04:06:48.710Z,4.10
2022-11-30T04:09:15.407Z,4.10
2022-11-30T04:11:42.219Z,4.10
2022-11-30T04:14:09.976Z,4.00
2022-11-30T04:16:36.738Z,4.00
2022-11-30T04:19:03.535Z,4.00
2022-11-30T04:21:31.028Z,4.00
2022-11-30T04:23:57.938Z,4.00
2022-11-30T04:26:24.726Z,4.00
2022-11-30T04:28:51.529Z,4.00
2022-11-30T04:31:18.352Z,4.00
2022-11-30T04:33:45.176Z,3.80
2022-11-30T04:36:20.566Z,4.00
2022-11-30T04:38:48.085Z,3.90
2022-11-30T04:41:15.243Z,3.90
2022-11-30T04:43:42.008Z,3.90
2022-11-30T04:46:09.027Z,4.00
2022-11-30T04:48:35.831Z,4.30
2022-11-30T04:51:08.351Z,3.90
2022-11-30T04:53:37.701Z,3.90
2022-11-30T04:56:11.149Z,3.90
2022-11-30T04:58:39.297Z,3.90
2022-11-30T05:01:06.684Z,3.90
2022-11-30T05:03:33.484Z,3.90
2022-11-30T05:06:00.189Z,3.80
2022-11-30T05:08:26.984Z,3.80
2022-11-30T05:10:55.187Z,3.80
2022-11-30T05:13:24.101Z,3.80
2022-11-30T05:15:51.009Z,3.80
2022-11-30T05:18:17.836Z,3.80
2022-11-30T05:20:50.613Z,3.80
2022-11-30T05:23:18.325Z,3.80
2022-11-30T05:25:46.201Z,3.80
2022-11-30T05:28:13.878Z,3.80
2022-11-30T05:30:42.558Z,3.70
2022-11-30T05:33:09.557Z,3.70
2022-11-30T05:35:37.000Z,3.70
2022-11-30T05:38:04.625Z,3.70
2022-11-30T05:40:34.398Z,3.70
2022-11-30T05:43:03.418Z,3.70
2022-11-30T05:45:31.085Z,3.70
2022-11-30T05:47:57.917Z,3.70
2022-11-30T05:50:24.730Z,3.70
2022-11-30T05:52:56.444Z,3.70
2022-11-30T05:55:29.572Z,3.70
2022-11-30T05:57:56.458Z,3.70
2022-11-30T06:00:23.256Z,3.70
2022-11-30T06:02:57.332Z,4.10
2022-11-30T06:05:25.349Z,3.70
2022-11-30T06:07:52.190Z,3.60
2022-11-30T06:10:20.029Z,3.70
2022-11-30T06:12:48.498Z,3.70
2022-11-30T06:15:15.289Z,3.60
2022-11-30T06:17:42.078Z,3.70
2022-11-30T06:20:09.537Z,3.70
2022-11-30T06:22:36.349Z,3.70
2022-11-30T06:25:04.520Z,3.70
2022-11-30T06:27:31.990Z,3.70
2022-11-30T06:29:58.918Z,3.70
2022-11-30T06:32:25.717Z,3.70
2022-11-30T06:34:52.441Z,3.60
2022-11-30T06:37:19.249Z,3.70
2022-11-30T06:42:34.063Z,3.70
2022-11-30T06:45:00.822Z,3.70
2022-11-30T06:47:28.136Z,3.70
2022-11-30T06:49:55.003Z,3.70
2022-11-30T06:55:04.996Z,3.70
2022-11-30T06:57:39.827Z,3.70
2022-11-30T07:00:08.405Z,3.70
2022-11-30T07:02:36.135Z,3.70
2022-11-30T07:05:06.756Z,3.70
2022-11-30T07:07:34.154Z,3.70
2022-11-30T07:10:00.964Z,3.70
2022-11-30T07:12:27.816Z,3.80
2022-11-30T07:14:57.319Z,3.80
2022-11-30T07:17:24.132Z,3.80
2022-11-30T07:19:50.849Z,3.80
2022-11-30T07:25:21.579Z,3.90
2022-11-30T07:27:48.295Z,3.90
2022-11-30T07:30:15.296Z,3.80
2022-11-30T07:32:42.024Z,3.80
2022-11-30T07:35:08.937Z,3.90
2022-11-30T07:37:35.640Z,3.90
2022-11-30T07:40:02.559Z,3.90
2022-11-30T07:42:29.336Z,3.90
2022-11-30T07:44:58.890Z,3.90
2022-11-30T07:47:26.004Z,4.00
2022-11-30T07:49:52.696Z,3.90
2022-11-30T07:52:19.488Z,3.90
2022-11-30T07:54:46.876Z,3.90
2022-11-30T07:57:13.916Z,3.90
2022-11-30T07:59:40.629Z,3.90
2022-11-30T08:02:07.431Z,3.90
2022-11-30T08:04:34.245Z,3.90
2022-11-30T08:07:01.000Z,3.90
2022-11-30T08:09:28.237Z,4.00
2022-11-30T08:11:55.010Z,4.00
2022-11-30T08:14:21.735Z,4.00
2022-11-30T08:16:48.958Z,3.90
2022-11-30T08:19:16.905Z,3.90
2022-11-30T08:21:43.685Z,4.00
2022-11-30T08:24:13.585Z,3.90
2022-11-30T08:26:40.393Z,4.00
2022-11-30T08:29:07.129Z,4.00
2022-11-30T08:31:36.303Z,4.00
2022-11-30T08:34:12.858Z,4.00
2022-11-30T08:36:41.039Z,4.00
2022-11-30T08:39:10.736Z,4.00
2022-11-30T08:41:39.036Z,4.00
2022-11-30T08:44:06.273Z,4.10
2022-11-30T08:49:22.919Z,4.10
2022-11-30T08:54:42.276Z,4.00
2022-11-30T08:57:09.134Z,4.00
2022-11-30T08:59:36.062Z,4.00
2022-11-30T09:02:03.554Z,3.90
2022-11-30T09:04:30.984Z,3.90
2022-11-30T09:06:59.920Z,3.90
2022-11-30T09:12:08.716Z,3.90
2022-11-30T09:14:35.674Z,3.90
2022-11-30T09:17:02.590Z,3.90
2022-11-30T09:19:29.417Z,3.90
2022-11-30T09:21:56.195Z,4.00
2022-11-30T09:24:22.957Z,4.00
2022-11-30T09:26:49.889Z,4.00
2022-11-30T09:29:16.649Z,4.00
2022-11-30T09:31:43.480Z,4.00
2022-11-30T09:34:12.108Z,4.00
2022-11-30T09:36:39.148Z,3.90
2022-11-30T09:39:08.853Z,3.90
2022-11-30T09:41:55.094Z,3.90
2022-11-30T09:44:51.741Z,3.90
2022-11-30T09:47:57.397Z,3.90
2022-11-30T09:50:30.141Z,3.90
2022-11-30T09:53:03.780Z,4.50
2022-11-30T09:55:40.823Z,4.00
2022-11-30T09:58:16.602Z,4.00
2022-11-30T10:00:43.412Z,4.10
2022-11-30T10:03:13.211Z,4.10
2022-11-30T10:06:10.459Z,4.00
2022-11-30T10:09:01.320Z,4.00
2022-11-30T10:11:53.519Z,4.00
2022-11-30T10:14:40.969Z,4.00
2022-11-30T10:17:29.587Z,4.00
2022-11-30T10:20:15.128Z,4.00
2022-11-30T10:23:44.458Z,4.00
2022-11-30T10:26:29.472Z,3.90
2022-11-30T10:29:12.183Z,3.90
2022-11-30T10:31:42.036Z,3.80
2022-11-30T10:34:32.350Z,3.80
2022-11-30T10:37:25.105Z,3.80
2022-11-30T10:40:05.308Z,3.80
2022-11-30T10:42:51.023Z,3.80
2022-11-30T10:45:24.461Z,3.80
2022-11-30T10:48:12.270Z,3.80
2022-11-30T10:50:40.512Z,3.80
2022-11-30T10:53:11.194Z,4.00
2022-11-30T10:56:10.245Z,3.80
2022-11-30T10:58:44.557Z,3.80
2022-11-30T11:01:40.325Z,3.80
2022-11-30T11:04:17.037Z,3.80
2022-11-30T11:06:59.379Z,3.80
2022-11-30T11:09:51.288Z,3.80
2022-11-30T11:12:27.556Z,3.80
2022-11-30T11:15:39.506Z,3.80
2022-11-30T11:18:22.887Z,3.90
2022-11-30T11:21:11.656Z,3.80
2022-11-30T11:23:42.169Z,3.90
2022-11-30T11:26:23.692Z,4.20
2022-11-30T11:28:53.789Z,3.90
2022-11-30T11:31:37.482Z,3.90
2022-11-30T11:34:22.418Z,3.90
2022-11-30T11:37:18.636Z,3.90
2022-11-30T11:40:15.976Z,3.90
2022-11-30T11:42:51.337Z,3.80
2022-11-30T11:45:29.219Z,3.80
2022-11-30T11:48:29.200Z,3.80
2022-11-30T11:51:09.851Z,3.80
2022-11-30T11:53:58.938Z,3.80
2022-11-30T11:56:32.097Z,3.80
2022-11-30T11:59:32.156Z,3.80
2022-11-30T12:02:06.378Z,3.80
2022-11-30T12:04:40.817Z,3.80
2022-11-30T12:07:25.509Z,3.80
2022-11-30T12:13:26.254Z,3.70
2022-11-30T12:16:23.987Z,3.80
2022-11-30T12:19:12.735Z,3.70
2022-11-30T12:22:12.807Z,3.70
2022-11-30T12:25:12.821Z,3.80
2022-11-30T12:28:05.733Z,3.70
2022-11-30T12:30:53.371Z,3.80
2022-11-30T12:33:48.217Z,3.80
2022-11-30T12:36:42.442Z,3.80
2022-11-30T12:39:39.149Z,3.70
2022-11-30T12:42:56.619Z,3.70
2022-11-30T12:45:39.763Z,3.70
2022-11-30T12:48:41.837Z,3.70
2022-11-30T12:51:29.972Z,3.80
2022-11-30T12:54:24.415Z,3.80
2022-11-30T12:57:44.720Z,3.70
2022-11-30T13:00:21.558Z,3.80
2022-11-30T13:03:18.885Z,3.80
2022-11-30T13:05:54.523Z,3.80
2022-11-30T13:20:50.364Z,3.80
2022-11-30T13:23:22.853Z,3.80
2022-11-30T13:26:10.087Z,3.80
2022-11-30T13:28:43.045Z,3.80
2022-11-30T13:31:28.419Z,3.90
2022-11-30T13:33:55.201Z,3.90
2022-11-30T13:36:32.977Z,3.80
2022-11-30T13:39:14.455Z,3.80
2022-11-30T13:41:43.667Z,3.80
2022-11-30T13:44:37.283Z,3.80
2022-11-30T13:47:31.125Z,3.80
2022-11-30T13:50:05.536Z,3.80
2022-11-30T13:52:57.469Z,3.70
2022-11-30T13:55:50.249Z,3.70
2022-11-30T13:58:19.821Z,3.70
2022-11-30T14:01:22.198Z,3.70
2022-11-30T14:04:30.899Z,3.70
2022-11-30T14:07:01.779Z,3.70
2022-11-30T14:09:40.098Z,3.70
2022-11-30T14:12:31.585Z,3.70
2022-11-30T14:15:00.542Z,3.70
2022-11-30T14:17:35.337Z,3.80
2022-11-30T14:20:18.955Z,3.80
2022-11-30T14:22:46.586Z,3.80
2022-11-30T14:25:20.459Z,3.80
2022-11-30T14:27:55.260Z,3.70
2022-11-30T14:30:24.122Z,3.70
2022-11-30T14:33:21.142Z,3.60
2022-11-30T14:35:56.451Z,3.60
2022-11-30T14:38:30.839Z,3.60
2022-11-30T14:40:58.420Z,3.60
2022-11-30T14:43:26.095Z,3.50
2022-11-30T14:46:07.208Z,3.50
2022-11-30T14:48:35.855Z,3.50
2022-11-30T14:51:03.969Z,3.60
2022-11-30T14:54:06.661Z,3.50
2022-11-30T14:56:46.996Z,3.50
2022-11-30T14:59:32.567Z,3.40
2022-11-30T15:02:03.685Z,3.30
2022-11-30T15:04:31.755Z,3.30
2022-11-30T15:07:00.135Z,3.30
2022-11-30T15:09:32.418Z,3.30
2022-11-30T15:11:59.879Z,3.20
2022-11-30T15:14:26.686Z,3.20
2022-11-30T15:16:57.003Z,3.20
2022-11-30T15:19:29.028Z,3.20
2022-11-30T15:21:58.647Z,3.20
2022-11-30T15:24:29.347Z,3.10
2022-11-30T15:27:08.767Z,3.10
2022-11-30T15:29:58.302Z,3.10
2022-11-30T15:32:26.027Z,3.00
2022-11-30T15:35:00.712Z,3.00
2022-11-30T15:37:41.131Z,3.00
2022-11-30T15:40:10.724Z,2.90
2022-11-30T15:42:41.467Z,2.90
2022-11-30T15:45:26.016Z,2.90
2022-11-30T15:47:55.886Z,2.90
2022-11-30T15:50:28.729Z,2.90
2022-11-30T15:53:04.149Z,2.90
2022-11-30T15:55:49.844Z,2.80
2022-11-30T15:58:45.240Z,2.80
2022-11-30T16:01:24.134Z,2.80
2022-11-30T16:04:05.119Z,2.90
2022-11-30T16:06:37.137Z,2.90
2022-11-30T16:09:32.243Z,2.90
2022-11-30T16:12:01.733Z,2.90
2022-11-30T16:14:28.876Z,2.90
2022-11-30T16:16:55.881Z,2.90
2022-11-30T16:19:22.964Z,2.90
2022-11-30T16:21:50.343Z,2.90
2022-11-30T16:24:17.471Z,2.90
2022-11-30T16:26:52.462Z,2.80
2022-11-30T16:29:20.184Z,2.80
2022-11-30T16:31:47.083Z,2.80
2022-11-30T16:34:13.950Z,2.80
2022-11-30T16:36:40.880Z,2.70
2022-11-30T16:39:12.035Z,2.70
2022-11-30T16:41:38.961Z,2.70
2022-11-30T16:44:14.050Z,2.70
2022-11-30T16:46:40.818Z,2.90
2022-11-30T16:49:07.546Z,2.60
2022-11-30T16:51:35.984Z,2.60
2022-11-30T16:54:03.792Z,2.60
2022-11-30T16:56:30.752Z,2.60
2022-11-30T16:58:57.500Z,2.60
2022-11-30T17:01:35.892Z,2.70
2022-11-30T17:04:20.270Z,2.70
2022-11-30T17:06:50.623Z,2.60
2022-11-30T17:09:19.548Z,2.60
2022-11-30T17:11:52.365Z,2.60
2022-11-30T17:14:21.049Z,2.70
2022-11-30T17:16:48.111Z,2.70
2022-11-30T17:19:14.953Z,2.70
2022-11-30T17:21:44.544Z,2.70
2022-11-30T17:24:11.930Z,2.70
2022-11-30T17:26:38.889Z,2.70
2022-11-30T17:29:06.548Z,2.70
2022-11-30T17:31:40.790Z,2.70
2022-11-30T17:36:56.102Z,2.60
2022-11-30T17:39:27.919Z,2.70
2022-11-30T17:41:55.724Z,2.70
2022-11-30T17:44:22.482Z,2.60
2022-11-30T17:46:49.319Z,2.70
2022-11-30T17:49:16.489Z,2.70
2022-11-30T17:51:47.207Z,2.90
2022-11-30T17:54:18.403Z,2.70
2022-11-30T17:56:48.859Z,2.70
2022-11-30T17:59:19.409Z,2.70
2022-11-30T18:01:46.337Z,2.70
2022-11-30T18:04:13.655Z,2.70
2022-11-30T18:06:40.448Z,2.70
2022-11-30T18:09:07.369Z,2.70
2022-11-30T18:11:34.604Z,2.60
2022-11-30T18:14:03.821Z,2.60
2022-11-30T18:16:36.281Z,2.60
2022-11-30T18:19:12.244Z,2.60
2022-11-30T18:21:41.671Z,2.60
2022-11-30T18:24:10.212Z,2.60
2022-11-30T18:26:38.799Z,2.60
2022-11-30T18:29:06.579Z,2.60
2022-11-30T18:31:33.967Z,2.50
2022-11-30T18:34:05.396Z,2.50
2022-11-30T18:36:34.424Z,2.50
2022-11-30T18:39:01.277Z,2.50
2022-11-30T18:41:30.119Z,2.60
2022-11-30T18:43:58.087Z,2.60
2022-11-30T18:46:25.794Z,2.60
2022-11-30T18:48:54.423Z,2.60
2022-11-30T18:51:25.173Z,2.50
2022-11-30T18:54:07.898Z,2.50
2022-11-30T18:56:37.943Z,2.50
2022-11-30T18:59:13.006Z,2.50
2022-11-30T19:01:40.335Z,2.50
2022-11-30T19:04:10.301Z,2.50
2022-11-30T19:06:39.075Z,2.50
2022-11-30T19:09:09.867Z,2.50
2022-11-30T19:11:38.762Z,2.50
2022-11-30T19:14:06.804Z,2.50
2022-11-30T19:16:35.314Z,2.50
2022-11-30T19:19:32.712Z,2.50
2022-11-30T19:21:58.416Z,2.50
2022-11-30T19:24:25.671Z,2.50
2022-11-30T19:26:52.661Z,2.60
2022-11-30T19:29:19.987Z,2.60
2022-11-30T19:34:27.524Z,2.70
2022-11-30T19:36:54.526Z,2.60
2022-11-30T19:39:21.560Z,2.60
2022-11-30T19:41:48.282Z,2.70
2022-11-30T19:44:15.632Z,2.70
2022-11-30T19:46:42.645Z,2.60
2022-11-30T19:49:10.431Z,2.60
2022-11-30T19:51:37.237Z,2.70
2022-11-30T19:54:04.195Z,2.70
2022-11-30T19:56:34.486Z,2.70
2022-11-30T19:59:05.568Z,2.70
2022-11-30T20:01:34.983Z,2.70
2022-11-30T20:04:02.695Z,2.70
2022-11-30T20:06:37.014Z,2.70
2022-11-30T20:09:09.594Z,2.70
2022-11-30T20:11:37.109Z,3.20
2022-11-30T20:14:04.599Z,2.60
2022-11-30T20:16:31.579Z,2.60
2022-11-30T20:19:02.971Z,2.60
2022-11-30T20:21:33.340Z,2.60
2022-11-30T20:24:06.037Z,2.50
2022-11-30T20:26:39.766Z,2.50
2022-11-30T20:29:12.680Z,2.60
2022-11-30T20:31:40.924Z,2.50
2022-11-30T20:34:12.526Z,2.60
2022-11-30T20:36:43.653Z,2.60
2022-11-30T20:39:14.007Z,2.60
2022-11-30T20:41:48.981Z,2.60
2022-11-30T20:44:15.983Z,2.50
2022-11-30T20:46:42.939Z,2.50
2022-11-30T20:49:18.648Z,2.50
2022-11-30T20:51:48.804Z,2.60
2022-11-30T20:56:58.916Z,2.50
2022-11-30T20:59:29.514Z,2.50
2022-11-30T21:01:56.955Z,2.50
2022-11-30T21:04:26.897Z,2.50
2022-11-30T21:06:54.540Z,2.50
2022-11-30T21:09:21.325Z,2.50
2022-11-30T21:11:49.246Z,2.50
2022-11-30T21:14:17.679Z,2.50
2022-11-30T21:16:47.459Z,2.50
2022-11-30T21:19:15.384Z,2.50
2022-11-30T21:21:42.348Z,2.70
2022-11-30T21:24:11.559Z,2.50
2022-11-30T21:26:43.198Z,2.50
2022-11-30T21:29:16.533Z,2.50
2022-11-30T21:31:44.864Z,2.50
2022-11-30T21:34:12.181Z,2.50
2022-11-30T21:36:39.117Z,2.50
2022-11-30T21:39:07.478Z,2.50
2022-11-30T21:41:37.965Z,2.50
2022-11-30T21:44:06.811Z,2.50
2022-11-30T21:46:34.450Z,2.50
2022-11-30T21:49:01.733Z,2.50
2022-11-30T21:51:31.768Z,2.50
2022-11-30T21:54:05.576Z,2.50
2022-11-30T21:56:38.879Z,2.50
2022-11-30T22:01:49.822Z,2.50
2022-11-30T22:04:16.856Z,2.50
2022-11-30T22:06:44.123Z,2.50
2022-11-30T22:09:16.754Z,2.50
2022-11-30T22:11:46.174Z,2.50
2022-11-30T22:14:16.550Z,2.50
2022-11-30T22:16:47.509Z,2.50
2022-11-30T22:19:19.352Z,2.50
2022-11-30T22:21:50.613Z,2.50
2022-11-30T22:24:21.439Z,2.50
2022-11-30T22:26:52.892Z,2.50
2022-11-30T22:29:22.917Z,2.50
2022-11-30T22:31:53.040Z,2.50
2022-11-30T22:34:21.240Z,2.50
2022-11-30T22:36:48.598Z,2.50
2022-11-30T22:39:21.257Z,2.50
2022-11-30T22:41:55.049Z,2.50
2022-11-30T22:44:24.036Z,2.50
2022-11-30T22:46:50.967Z,2.50
2022-11-30T22:49:21.472Z,2.50
2022-11-30T22:51:49.947Z,2.50
2022-11-30T22:54:17.210Z,2.50
2022-11-30T22:56:46.112Z,2.50
2022-11-30T22:59:14.096Z,2.50
2022-11-30T23:01:49.384Z,2.40
2022-11-30T23:04:19.894Z,2.40
2022-11-30T23:06:48.768Z,2.40
2022-11-30T23:09:22.763Z,2.50
2022-11-30T23:11:50.925Z,2.40
2022-11-30T23:14:18.870Z,2.50
2022-11-30T23:16:46.432Z,2.50
2022-11-30T23:19:14.343Z,2.50
2022-11-30T23:21:44.792Z,2.50
2022-11-30T23:24:17.887Z,2.50
2022-11-30T23:26:44.811Z,2.50
2022-11-30T23:29:14.293Z,2.60
2022-11-30T23:31:42.953Z,2.60
2022-11-30T23:34:14.203Z,2.60
2022-11-30T23:36:51.007Z,2.50
2022-11-30T23:39:19.627Z,2.40
2022-11-30T23:41:46.932Z,2.40
2022-11-30T23:44:14.150Z,2.40
2022-11-30T23:46:41.067Z,2.40
2022-11-30T23:49:08.183Z,2.40
2022-11-30T23:51:35.487Z,2.40
2022-11-30T23:54:02.333Z,2.40
2022-11-30T23:56:29.155Z,2.40
2022-11-30T23:58:55.952Z,2.40
